Airfield :
LOGIN :

Register | Disclaimer

   EN    FR    IT 

 










Legend :    VFR   Marginal VFR   IFR   Intensive IFR   Very Intensive IFR
Visi :
Ceiling :
>= 8 km
>= 3000ft
5 to 8 km
1000 to 3000 ft
1500m to 5 km
500 to 1000 ft
800 to 1500m
200 to 500 ft
< 800m
< 200 ft
Symbols :   Thunderstorms  Fog  Heavy snow  Heavy precipitations  Wind > 20 kt
SIGMETs :     Misc.  Thunderstorms  Icing  Turbulence  Mountain Waves  Volcanic Ashes







- Airport Elevation : 2220 ft


LOXZ - Zeltweg AB

CURRENT METAR :
  • 181450Z 34009KT 40KM FEW070CU 22/08 Q1020

EXPIRED METARs :
  • 181420Z 31009KT 40KM FEW070CU 22/08 Q1020 NOSIG
  • 181350Z 32011KT 40KM FEW060CU SCT080SC 22/09 Q1020 NOSIG
  • 181320Z 33016KT 40KM FEW060CU SCT080SC 22/10 Q1021 NOSIG
  • 181250Z 33015KT 40KM FEW060CU SCT080SC 22/10 Q1020 NOSIG

TAF TAF LOXZ
Valid from the 18 at 12:00 until the 18 at 21:00 UTC


181115Z 1812/1821 08010KT 9999 SCT060 SCT120
TEMPO 1812/1817 35015KT
No reported NOTAMs for that airfield.



MET'MAP, your aeronautical weather chart ! - Copyright ORBIFLY December 2007 - Disclaimer

ORBIFLY MET'MAP TEAM :

Programming & Development : Alexandra Zaïnal
Concept & Development : Baudouin d'Aumeries
Co-Development & Prog : Marc-Olivier Méhu
Technical & hardware support : Manuel Goepfert

Contact : metmap@orbifly.com




SOURCES & CREDITS :

   NOAA